Time;durP1;ratioP1;P1;durP2;ratioP2;P2;SDS_P1;SDS_P2;PMS_P1;PMS_P2;Temp;Humidity;BMP_temperature;BMP_pressure;BME280_temperature;BME280_humidity;BME280_pressure;Samples;Min_cycle;Max_cycle;Signal;HPM_P1;HPM_P2
2022/07/18 00:03:53;;;;;;;3.28;1.45;;;;;;;;;;10355610;28;20057;-76
2022/07/18 00:08:54;;;;;;;3.78;2.17;;;;;;;;;;10355989;28;20527;-74
2022/07/18 00:13:55;;;;;;;4.32;2.22;;;;;;;;;;10373150;28;20033;-74
2022/07/18 00:18:57;;;;;;;2.20;1.85;;;;;;;;;;10372184;28;20168;-75
2022/07/18 00:23:57;;;;;;;6.38;2.47;;;;;;;;;;10354978;28;20030;-74
2022/07/18 00:28:57;;;;;;;5.73;2.20;;;;;;;;;;10355054;28;20184;-74
2022/07/18 00:33:58;;;;;;;6.95;2.80;;;;;;;;;;10372504;28;20073;-75
2022/07/18 00:38:58;;;;;;;2.50;1.58;;;;;;;;;;10354590;28;20427;-74
2022/07/18 00:43:58;;;;;;;1.63;1.53;;;;;;;;;;10372384;28;20096;-74
2022/07/18 00:48:59;;;;;;;6.78;1.73;;;;;;;;;;10354210;28;20710;-74
2022/07/18 00:53:59;;;;;;;2.83;1.75;;;;;;;;;;10354147;28;20606;-74
2022/07/18 00:58:59;;;;;;;2.80;1.70;;;;;;;;;;10354115;28;20041;-75
2022/07/18 01:04:00;;;;;;;8.23;2.25;;;;;;;;;;10353957;28;20088;-75
2022/07/18 01:09:00;;;;;;;2.28;1.80;;;;;;;;;;10371187;28;20065;-75
2022/07/18 01:14:01;;;;;;;10.93;2.00;;;;;;;;;;10353382;28;20026;-75
2022/07/18 01:19:02;;;;;;;3.22;1.88;;;;;;;;;;10370904;28;20121;-75
2022/07/18 01:24:03;;;;;;;3.17;1.92;;;;;;;;;;10353207;28;20184;-75
2022/07/18 01:29:03;;;;;;;3.53;1.65;;;;;;;;;;10369756;28;20045;-75
2022/07/18 01:34:03;;;;;;;5.18;1.80;;;;;;;;;;10352997;28;20040;-75
2022/07/18 01:39:04;;;;;;;2.77;1.53;;;;;;;;;;10352772;28;20104;-75
2022/07/18 01:44:04;;;;;;;3.03;1.85;;;;;;;;;;10370438;28;20092;-75
2022/07/18 01:49:04;;;;;;;2.67;1.90;;;;;;;;;;10352788;28;20030;-75
2022/07/18 01:54:04;;;;;;;3.13;1.17;;;;;;;;;;10352726;28;20084;-76
2022/07/18 01:59:05;;;;;;;2.33;1.00;;;;;;;;;;10370180;28;20072;-75
2022/07/18 02:04:05;;;;;;;5.00;1.60;;;;;;;;;;10352274;28;20033;-75
2022/07/18 02:09:06;;;;;;;2.40;1.70;;;;;;;;;;10352345;28;20460;-75
2022/07/18 02:14:06;;;;;;;1.80;1.52;;;;;;;;;;10352370;28;20034;-75
2022/07/18 02:19:07;;;;;;;2.35;1.17;;;;;;;;;;10352277;28;20030;-76
2022/07/18 02:24:07;;;;;;;4.10;1.55;;;;;;;;;;10352089;28;20026;-75
2022/07/18 02:29:08;;;;;;;2.30;1.40;;;;;;;;;;10369711;28;20032;-75
2022/07/18 02:34:11;;;;;;;2.50;1.70;;;;;;;;;;10352035;28;20344;-74
2022/07/18 02:39:11;;;;;;;2.28;1.30;;;;;;;;;;10352060;28;20036;-74
2022/07/18 02:44:11;;;;;;;9.23;2.55;;;;;;;;;;10358907;28;20108;-75
2022/07/18 02:49:26;;;;;;;2.80;1.80;;;;;;;;;;10382735;28;20038;-74
2022/07/18 02:54:27;;;;;;;1.92;1.60;;;;;;;;;;10358636;28;20034;-75
2022/07/18 02:59:27;;;;;;;1.80;1.30;;;;;;;;;;10358296;28;20041;-75
2022/07/18 03:04:27;;;;;;;6.38;1.70;;;;;;;;;;10358379;28;20578;-74
2022/07/18 03:09:28;;;;;;;2.67;1.45;;;;;;;;;;10358218;28;20037;-75
2022/07/18 03:14:28;;;;;;;6.20;1.98;;;;;;;;;;10357810;28;20097;-76
2022/07/18 03:19:28;;;;;;;5.50;2.30;;;;;;;;;;10357431;28;20057;-75
2022/07/18 03:24:29;;;;;;;3.53;1.50;;;;;;;;;;10357436;28;20547;-74
2022/07/18 03:29:29;;;;;;;6.93;1.48;;;;;;;;;;10357291;28;20033;-74
2022/07/18 03:34:29;;;;;;;3.80;1.50;;;;;;;;;;10374646;28;20040;-75
2022/07/18 03:39:29;;;;;;;3.75;1.75;;;;;;;;;;10356789;28;20092;-75
2022/07/18 03:44:30;;;;;;;2.53;1.35;;;;;;;;;;10356618;28;20030;-75
2022/07/18 03:49:30;;;;;;;2.97;1.50;;;;;;;;;;10356320;28;20526;-76
2022/07/18 03:54:30;;;;;;;3.17;1.90;;;;;;;;;;10355174;28;20491;-75
2022/07/18 03:59:31;;;;;;;3.35;1.95;;;;;;;;;;10373627;28;20046;-75
2022/07/18 04:04:31;;;;;;;3.77;1.70;;;;;;;;;;10355712;28;20065;-75
2022/07/18 04:09:31;;;;;;;6.63;2.05;;;;;;;;;;10355712;28;20026;-75
2022/07/18 04:14:31;;;;;;;3.13;1.65;;;;;;;;;;10355335;28;20062;-75
2022/07/18 04:19:34;;;;;;;4.57;2.53;;;;;;;;;;10355448;28;20041;-75
2022/07/18 04:24:34;;;;;;;6.75;1.67;;;;;;;;;;10354979;28;20273;-75
2022/07/18 04:29:36;;;;;;;4.30;2.17;;;;;;;;;;10354765;28;20033;-75
2022/07/18 04:34:36;;;;;;;5.30;1.80;;;;;;;;;;10354613;28;20029;-75
2022/07/18 04:39:36;;;;;;;6.28;2.95;;;;;;;;;;10354219;28;20022;-75
2022/07/18 04:44:36;;;;;;;1.55;1.30;;;;;;;;;;10354241;28;20415;-74
2022/07/18 04:49:37;;;;;;;5.63;1.83;;;;;;;;;;10371522;28;20351;-75
2022/07/18 04:54:37;;;;;;;5.38;1.67;;;;;;;;;;10353891;28;20030;-76
2022/07/18 04:59:37;;;;;;;9.15;2.33;;;;;;;;;;10354139;28;20514;-75
2022/07/18 05:04:38;;;;;;;10.32;2.50;;;;;;;;;;10353112;28;20033;-75
2022/07/18 05:09:38;;;;;;;8.80;2.22;;;;;;;;;;10353881;28;20038;-75
2022/07/18 05:14:39;;;;;;;6.17;2.30;;;;;;;;;;10353236;28;20033;-75
2022/07/18 05:19:39;;;;;;;6.18;2.22;;;;;;;;;;10352884;28;20044;-76
2022/07/18 05:24:39;;;;;;;15.77;2.38;;;;;;;;;;10352996;28;20022;-76
2022/07/18 05:29:39;;;;;;;6.35;2.72;;;;;;;;;;10352649;28;20026;-76
2022/07/18 05:34:40;;;;;;;24.13;4.95;;;;;;;;;;10352716;28;20037;-75
2022/07/18 05:39:40;;;;;;;6.40;1.95;;;;;;;;;;10370010;28;20022;-75
2022/07/18 05:44:40;;;;;;;7.03;1.80;;;;;;;;;;10352198;28;20124;-74
2022/07/18 05:49:40;;;;;;;5.10;2.03;;;;;;;;;;10352027;28;20045;-75
2022/07/18 05:54:41;;;;;;;3.13;1.63;;;;;;;;;;10351776;28;20030;-75
2022/07/18 05:59:41;;;;;;;2.93;1.87;;;;;;;;;;10351749;28;20416;-74
2022/07/18 06:04:42;;;;;;;3.67;1.90;;;;;;;;;;10352832;28;20058;-75
2022/07/18 06:09:43;;;;;;;10.18;2.60;;;;;;;;;;10351858;28;20025;-74
2022/07/18 06:14:43;;;;;;;7.22;1.75;;;;;;;;;;10353032;28;20036;-75
2022/07/18 06:19:43;;;;;;;5.63;1.77;;;;;;;;;;10359745;28;20518;-74
2022/07/18 06:24:43;;;;;;;7.57;3.67;;;;;;;;;;10359039;28;20038;-75
2022/07/18 06:29:44;;;;;;;11.07;1.98;;;;;;;;;;10359093;28;20034;-74
2022/07/18 06:34:44;;;;;;;8.88;2.17;;;;;;;;;;10359192;28;20064;-74
2022/07/18 06:39:44;;;;;;;5.07;1.20;;;;;;;;;;10358510;28;20121;-74
2022/07/18 06:44:44;;;;;;;6.18;1.25;;;;;;;;;;10358250;28;20518;-75
2022/07/18 06:49:45;;;;;;;3.07;1.00;;;;;;;;;;10358575;28;20030;-74
2022/07/18 06:54:45;;;;;;;6.45;1.25;;;;;;;;;;10358021;28;20038;-75
2022/07/18 06:59:45;;;;;;;4.15;1.27;;;;;;;;;;10357746;28;20050;-74
2022/07/18 07:04:45;;;;;;;10.75;1.30;;;;;;;;;;10357887;28;20069;-74
2022/07/18 07:09:46;;;;;;;6.10;1.05;;;;;;;;;;10358532;28;20034;-73
2022/07/18 07:14:46;;;;;;;5.53;1.00;;;;;;;;;;10357464;28;20033;-74
2022/07/18 07:19:46;;;;;;;2.83;0.80;;;;;;;;;;10375139;28;20034;-74
2022/07/18 07:24:46;;;;;;;1.92;0.50;;;;;;;;;;10357691;28;20443;-74
2022/07/18 07:29:47;;;;;;;7.47;1.00;;;;;;;;;;10357004;28;20184;-75
2022/07/18 07:34:47;;;;;;;2.53;1.08;;;;;;;;;;10357338;28;20120;-74
2022/07/18 07:39:49;;;;;;;4.90;0.95;;;;;;;;;;10356431;28;20042;-74
2022/07/18 07:44:49;;;;;;;4.78;0.93;;;;;;;;;;10356433;28;20028;-75
2022/07/18 07:49:50;;;;;;;3.80;1.15;;;;;;;;;;10373918;28;20033;-74
2022/07/18 07:54:50;;;;;;;1.60;0.73;;;;;;;;;;10356021;28;20387;-75
2022/07/18 07:59:51;;;;;;;2.55;0.82;;;;;;;;;;10355631;28;20502;-74
2022/07/18 08:04:51;;;;;;;1.95;0.75;;;;;;;;;;10356057;28;20147;-75
2022/07/18 08:09:51;;;;;;;4.47;0.80;;;;;;;;;;10355399;28;20100;-74
2022/07/18 08:14:51;;;;;;;3.38;0.55;;;;;;;;;;10355282;28;20485;-74
2022/07/18 08:19:52;;;;;;;2.70;0.60;;;;;;;;;;10354927;28;20033;-74
2022/07/18 08:24:52;;;;;;;3.33;0.63;;;;;;;;;;10354842;28;20526;-75
2022/07/18 08:29:52;;;;;;;3.40;0.73;;;;;;;;;;10354811;28;20128;-75
2022/07/18 08:34:53;;;;;;;2.92;0.60;;;;;;;;;;10354294;28;20034;-75
2022/07/18 08:39:54;;;;;;;4.20;1.63;;;;;;;;;;10371506;28;20129;-76
2022/07/18 08:44:55;;;;;;;5.80;0.85;;;;;;;;;;10354347;28;20140;-75
2022/07/18 08:49:55;;;;;;;1.85;1.15;;;;;;;;;;10354034;28;20041;-76
2022/07/18 08:54:56;;;;;;;2.25;0.77;;;;;;;;;;10353516;28;20030;-76
2022/07/18 08:59:56;;;;;;;1.63;0.47;;;;;;;;;;10353677;28;20073;-74
2022/07/18 09:04:59;;;;;;;1.88;0.70;;;;;;;;;;10353219;28;20575;-75
2022/07/18 09:10:00;;;;;;;2.25;0.57;;;;;;;;;;10352998;28;20092;-75
2022/07/18 09:15:08;;;;;;;2.67;0.57;;;;;;;;;;10353080;28;20462;-74
2022/07/18 09:20:11;;;;;;;3.03;1.25;;;;;;;;;;10352873;28;20435;-75
2022/07/18 09:25:13;;;;;;;3.03;0.93;;;;;;;;;;10353077;28;20034;-75
2022/07/18 09:30:26;;;;;;;4.80;1.10;;;;;;;;;;10353081;28;20034;-75
2022/07/18 09:35:27;;;;;;;2.97;0.90;;;;;;;;;;10352788;28;20038;-75
2022/07/18 09:40:28;;;;;;;1.30;0.65;;;;;;;;;;10352946;28;20145;-75
2022/07/18 09:45:29;;;;;;;4.10;1.10;;;;;;;;;;10370216;28;20029;-74
2022/07/18 09:50:40;;;;;;;2.15;0.88;;;;;;;;;;10375008;28;20420;-76
2022/07/18 09:55:42;;;;;;;1.25;0.98;;;;;;;;;;10360614;28;20065;-75
2022/07/18 10:00:42;;;;;;;5.63;1.40;;;;;;;;;;10360615;28;20045;-75
2022/07/18 10:05:43;;;;;;;4.50;1.50;;;;;;;;;;10360110;28;20049;-74
2022/07/18 10:10:45;;;;;;;4.85;0.93;;;;;;;;;;10359789;28;20041;-75
2022/07/18 10:15:46;;;;;;;8.27;1.88;;;;;;;;;;10359963;28;20037;-74
2022/07/18 10:20:47;;;;;;;3.90;1.30;;;;;;;;;;10360216;28;20072;-73
2022/07/18 10:26:05;;;;;;;3.47;0.82;;;;;;;;;;10359765;28;20069;-73
2022/07/18 10:31:16;;;;;;;3.38;1.10;;;;;;;;;;10359207;28;20034;-74
2022/07/18 10:36:17;;;;;;;1.88;0.80;;;;;;;;;;10359021;28;20037;-74
2022/07/18 10:41:18;;;;;;;3.53;0.80;;;;;;;;;;10358961;28;20091;-74
2022/07/18 10:46:18;;;;;;;4.68;0.98;;;;;;;;;;10358539;28;20622;-75
2022/07/18 10:51:19;;;;;;;5.60;1.00;;;;;;;;;;10358444;28;20063;-74
2022/07/18 10:56:28;;;;;;;4.15;1.08;;;;;;;;;;10358412;28;20511;-74
2022/07/18 11:01:30;;;;;;;5.32;1.38;;;;;;;;;;10375200;28;20169;-75
2022/07/18 11:06:49;;;;;;;4.72;0.90;;;;;;;;;;10341612;28;20101;-75
2022/07/18 11:12:08;;;;;;;4.55;1.05;;;;;;;;;;10373964;28;20037;-75
2022/07/18 11:17:08;;;;;;;2.45;1.35;;;;;;;;;;10375204;28;20045;-75
2022/07/18 11:22:09;;;;;;;4.55;1.30;;;;;;;;;;10357347;28;20419;-76
2022/07/18 11:27:09;;;;;;;10.27;2.30;;;;;;;;;;10357324;28;20026;-75
2022/07/18 11:32:09;;;;;;;7.23;1.53;;;;;;;;;;10356759;28;20034;-74
2022/07/18 11:37:13;;;;;;;2.85;1.00;;;;;;;;;;10356595;28;20054;-74
2022/07/18 11:42:15;;;;;;;5.05;1.80;;;;;;;;;;10356375;28;20480;-75
2022/07/18 11:47:16;;;;;;;3.60;1.17;;;;;;;;;;10356210;28;20028;-74
2022/07/18 11:52:17;;;;;;;5.45;2.42;;;;;;;;;;10373802;28;20034;-76
2022/07/18 11:57:28;;;;;;;4.82;1.42;;;;;;;;;;10373404;28;20037;-74
2022/07/18 12:02:47;;;;;;;2.92;2.08;;;;;;;;;;10355067;28;20050;-74
2022/07/18 12:07:47;;;;;;;4.05;2.00;;;;;;;;;;10371833;28;20038;-75
2022/07/18 12:12:47;;;;;;;5.78;1.20;;;;;;;;;;10354509;28;20038;-75
2022/07/18 12:17:50;;;;;;;5.25;1.30;;;;;;;;;;10354640;28;20034;-76
2022/07/18 12:23:07;;;;;;;3.70;1.20;;;;;;;;;;10355328;28;20058;-76
2022/07/18 12:28:17;;;;;;;3.60;1.50;;;;;;;;;;10354848;28;20060;-75
2022/07/18 12:33:18;;;;;;;3.33;1.80;;;;;;;;;;10354564;28;20034;-75
2022/07/18 12:38:18;;;;;;;3.20;1.47;;;;;;;;;;10354482;28;20037;-75
2022/07/18 12:43:23;;;;;;;4.57;1.60;;;;;;;;;;10353961;28;20038;-75
2022/07/18 12:48:24;;;;;;;4.95;1.80;;;;;;;;;;10353822;28;20125;-74
2022/07/18 12:53:24;;;;;;;3.10;1.77;;;;;;;;;;10353679;28;20125;-74
2022/07/18 12:58:24;;;;;;;6.20;2.38;;;;;;;;;;10353534;28;20435;-75
2022/07/18 13:03:25;;;;;;;4.03;1.50;;;;;;;;;;10353201;28;20530;-75
2022/07/18 13:08:27;;;;;;;2.60;1.80;;;;;;;;;;10371221;28;20415;-74
2022/07/18 13:13:27;;;;;;;5.13;1.67;;;;;;;;;;10384211;28;20025;-74
2022/07/18 13:18:27;;;;;;;4.83;1.97;;;;;;;;;;10352421;28;20033;-75
2022/07/18 13:23:28;;;;;;;6.45;2.63;;;;;;;;;;10352752;28;20103;-75
2022/07/18 13:28:28;;;;;;;10.63;2.00;;;;;;;;;;10352460;28;20136;-74
2022/07/18 13:33:28;;;;;;;3.47;2.20;;;;;;;;;;10352461;28;20033;-75
2022/07/18 13:38:28;;;;;;;2.13;1.77;;;;;;;;;;10352347;28;20033;-74
2022/07/18 13:43:29;;;;;;;4.15;2.00;;;;;;;;;;10352170;28;20033;-75
2022/07/18 13:48:29;;;;;;;6.75;2.33;;;;;;;;;;10352012;28;20488;-75
2022/07/18 13:53:29;;;;;;;15.60;2.60;;;;;;;;;;10351969;28;20062;-74
2022/07/18 13:58:30;;;;;;;4.47;2.67;;;;;;;;;;10352882;28;20038;-74
2022/07/18 14:03:30;;;;;;;2.72;2.08;;;;;;;;;;10351535;28;20487;-74
2022/07/18 14:08:30;;;;;;;4.25;2.10;;;;;;;;;;10352239;28;20595;-76
2022/07/18 14:13:31;;;;;;;3.55;2.28;;;;;;;;;;10369229;28;20037;-75
2022/07/18 14:18:31;;;;;;;4.55;2.25;;;;;;;;;;10351558;28;20045;-76
2022/07/18 14:23:31;;;;;;;5.60;2.65;;;;;;;;;;10369102;28;20046;-74
2022/07/18 14:28:31;;;;;;;2.80;1.97;;;;;;;;;;10351370;28;20033;-75
2022/07/18 14:33:32;;;;;;;3.75;2.20;;;;;;;;;;10351388;28;20030;-74
2022/07/18 14:38:32;;;;;;;9.87;2.23;;;;;;;;;;10356368;28;20030;-75
2022/07/18 14:43:33;;;;;;;5.60;2.63;;;;;;;;;;10376037;28;20084;-74
2022/07/18 14:48:33;;;;;;;8.15;2.72;;;;;;;;;;10358046;28;20041;-74
2022/07/18 14:53:33;;;;;;;10.97;2.57;;;;;;;;;;10358498;28;20034;-75
2022/07/18 14:58:34;;;;;;;8.93;2.40;;;;;;;;;;10358338;28;20483;-75
2022/07/18 15:03:34;;;;;;;7.20;2.30;;;;;;;;;;10375190;28;20058;-74
2022/07/18 15:08:34;;;;;;;3.70;2.00;;;;;;;;;;10375420;28;20038;-75
2022/07/18 15:13:34;;;;;;;7.65;2.25;;;;;;;;;;10357368;28;20044;-75
2022/07/18 15:18:35;;;;;;;3.03;2.30;;;;;;;;;;10357096;28;20087;-74
2022/07/18 15:23:35;;;;;;;3.53;2.45;;;;;;;;;;10356883;28;20522;-75
2022/07/18 15:28:35;;;;;;;7.32;2.45;;;;;;;;;;10356935;28;20104;-76
2022/07/18 15:33:35;;;;;;;7.27;2.03;;;;;;;;;;10356649;28;20499;-76
2022/07/18 15:38:36;;;;;;;3.60;2.13;;;;;;;;;;10356750;28;20269;-75
2022/07/18 15:43:37;;;;;;;7.73;2.63;;;;;;;;;;10356532;28;20022;-73
2022/07/18 15:48:37;;;;;;;4.25;2.60;;;;;;;;;;10355845;28;20080;-74
2022/07/18 15:53:38;;;;;;;5.50;2.78;;;;;;;;;;10355768;28;20079;-75
2022/07/18 15:58:38;;;;;;;4.95;2.90;;;;;;;;;;10355850;28;20111;-75
2022/07/18 16:03:38;;;;;;;3.60;2.17;;;;;;;;;;10355287;28;20046;-75
2022/07/18 16:08:39;;;;;;;5.30;3.15;;;;;;;;;;10355422;28;20117;-76
2022/07/18 16:13:39;;;;;;;6.10;3.88;;;;;;;;;;10355131;28;20041;-74
2022/07/18 16:18:39;;;;;;;5.95;3.00;;;;;;;;;;10354685;28;20046;-75
2022/07/18 16:23:40;;;;;;;8.18;3.00;;;;;;;;;;10372536;28;20500;-75
2022/07/18 16:28:41;;;;;;;5.80;2.60;;;;;;;;;;10385764;28;20018;-75
2022/07/18 16:33:41;;;;;;;5.72;2.33;;;;;;;;;;10354183;28;20536;-73
2022/07/18 16:38:41;;;;;;;3.53;2.70;;;;;;;;;;10354172;28;20030;-74
2022/07/18 16:43:42;;;;;;;12.30;2.60;;;;;;;;;;10354502;28;20354;-75
2022/07/18 16:48:42;;;;;;;6.97;2.58;;;;;;;;;;10353903;28;20491;-74
2022/07/18 16:53:43;;;;;;;5.70;3.30;;;;;;;;;;10353871;28;20052;-74
2022/07/18 16:58:43;;;;;;;6.72;2.45;;;;;;;;;;10370838;28;20057;-75
2022/07/18 17:03:44;;;;;;;3.43;2.40;;;;;;;;;;10353217;28;20062;-73
2022/07/18 17:08:44;;;;;;;3.13;2.17;;;;;;;;;;10353687;28;20026;-74
2022/07/18 17:13:44;;;;;;;7.45;2.63;;;;;;;;;;10353071;28;20036;-74
2022/07/18 17:18:45;;;;;;;6.83;2.93;;;;;;;;;;10353068;28;20096;-74
2022/07/18 17:23:45;;;;;;;6.17;2.67;;;;;;;;;;10370896;28;20276;-75
2022/07/18 17:28:46;;;;;;;4.18;2.40;;;;;;;;;;10353559;28;20030;-74
2022/07/18 17:33:46;;;;;;;2.42;2.15;;;;;;;;;;10370368;28;20499;-74
2022/07/18 17:38:49;;;;;;;4.95;2.45;;;;;;;;;;10352590;28;20037;-74
2022/07/18 17:43:50;;;;;;;3.78;2.35;;;;;;;;;;10352569;28;20037;-75
2022/07/18 17:48:50;;;;;;;6.23;2.37;;;;;;;;;;10352352;28;20480;-74
2022/07/18 17:53:50;;;;;;;5.07;2.87;;;;;;;;;;10352303;28;20045;-74
2022/07/18 17:58:51;;;;;;;3.38;2.40;;;;;;;;;;10370269;28;20276;-76
2022/07/18 18:03:52;;;;;;;7.40;3.13;;;;;;;;;;10352114;28;20508;-74
2022/07/18 18:08:53;;;;;;;6.25;3.22;;;;;;;;;;10352083;28;20411;-76
2022/07/18 18:13:53;;;;;;;8.67;3.30;;;;;;;;;;10358067;28;20117;-74
2022/07/18 18:18:53;;;;;;;6.90;2.80;;;;;;;;;;10359892;28;20061;-74
2022/07/18 18:23:53;;;;;;;5.22;2.47;;;;;;;;;;10359349;28;20038;-73
2022/07/18 18:28:54;;;;;;;6.15;2.33;;;;;;;;;;10359220;28;20430;-75
2022/07/18 18:33:54;;;;;;;4.72;3.17;;;;;;;;;;10358940;28;20096;-75
2022/07/18 18:38:54;;;;;;;5.07;3.55;;;;;;;;;;10376556;28;20033;-75
2022/07/18 18:43:55;;;;;;;6.40;3.42;;;;;;;;;;10358721;28;20037;-75
2022/07/18 18:48:55;;;;;;;9.68;3.55;;;;;;;;;;10358432;28;20410;-75
2022/07/18 18:53:55;;;;;;;7.43;3.43;;;;;;;;;;10358864;28;20132;-75
2022/07/18 18:58:55;;;;;;;8.50;3.10;;;;;;;;;;10376239;28;20033;-75
2022/07/18 19:03:57;;;;;;;7.47;3.58;;;;;;;;;;10357802;28;20054;-75
2022/07/18 19:08:58;;;;;;;8.07;4.60;;;;;;;;;;10357838;28;20034;-75
2022/07/18 19:13:58;;;;;;;9.68;4.18;;;;;;;;;;10357470;28;20518;-76
2022/07/18 19:18:58;;;;;;;8.37;3.60;;;;;;;;;;10357977;28;20507;-76
2022/07/18 19:23:59;;;;;;;9.37;3.97;;;;;;;;;;10374692;28;20335;-76
2022/07/18 19:29:00;;;;;;;10.82;3.80;;;;;;;;;;10357048;28;20076;-75
2022/07/18 19:34:03;;;;;;;6.85;4.00;;;;;;;;;;10357250;28;20038;-75
2022/07/18 19:39:06;;;;;;;6.25;3.15;;;;;;;;;;10374375;28;20038;-76
2022/07/18 19:44:06;;;;;;;8.90;3.83;;;;;;;;;;10356390;28;20427;-76
2022/07/18 19:49:06;;;;;;;3.87;3.40;;;;;;;;;;10356467;28;20033;-75
2022/07/18 19:54:07;;;;;;;4.20;3.30;;;;;;;;;;10356009;28;20030;-75
2022/07/18 19:59:07;;;;;;;3.97;3.13;;;;;;;;;;10355999;28;20065;-75
2022/07/18 20:04:07;;;;;;;14.38;4.53;;;;;;;;;;10355491;28;20037;-75
2022/07/18 20:09:08;;;;;;;8.68;4.25;;;;;;;;;;10355622;28;20113;-75
2022/07/18 20:14:08;;;;;;;16.80;5.03;;;;;;;;;;10355489;28;20030;-75
2022/07/18 20:19:08;;;;;;;7.63;4.78;;;;;;;;;;10355371;28;20130;-75
2022/07/18 20:24:08;;;;;;;10.38;4.35;;;;;;;;;;10354898;28;20096;-75
2022/07/18 20:29:09;;;;;;;10.60;5.43;;;;;;;;;;10355119;28;20128;-75
2022/07/18 20:34:09;;;;;;;8.98;4.63;;;;;;;;;;10354374;28;20045;-74
2022/07/18 20:39:09;;;;;;;6.95;4.00;;;;;;;;;;10355382;28;20040;-75
2022/07/18 20:44:09;;;;;;;8.40;4.67;;;;;;;;;;10354744;28;20034;-76
2022/07/18 20:49:10;;;;;;;7.33;4.23;;;;;;;;;;10354815;28;20506;-75
2022/07/18 20:54:10;;;;;;;12.65;4.47;;;;;;;;;;10371899;28;20092;-75
2022/07/18 20:59:10;;;;;;;9.87;4.47;;;;;;;;;;10354101;28;20591;-75
2022/07/18 21:04:11;;;;;;;4.33;2.90;;;;;;;;;;10353940;28;20115;-75
2022/07/18 21:09:11;;;;;;;4.55;2.90;;;;;;;;;;10371420;28;20088;-75
2022/07/18 21:19:30;;;;;;;3.50;2.67;;;;;;;;;;10371265;28;20476;-75
2022/07/18 21:24:31;;;;;;;6.10;2.97;;;;;;;;;;10370905;28;20034;-75
2022/07/18 21:29:31;;;;;;;4.60;2.70;;;;;;;;;;10353474;28;20041;-75
2022/07/18 21:34:31;;;;;;;4.32;3.15;;;;;;;;;;10353160;28;20109;-75
2022/07/18 21:39:31;;;;;;;8.68;3.08;;;;;;;;;;10353421;28;20026;-75
2022/07/18 21:44:32;;;;;;;7.63;2.78;;;;;;;;;;10353745;28;20041;-75
2022/07/18 21:49:32;;;;;;;4.03;3.03;;;;;;;;;;10361187;28;20461;-75
2022/07/18 21:54:32;;;;;;;3.90;2.53;;;;;;;;;;10361038;28;20336;-75
2022/07/18 21:59:33;;;;;;;6.43;2.38;;;;;;;;;;10360820;28;20050;-76
2022/07/18 22:04:33;;;;;;;4.93;2.73;;;;;;;;;;10378161;28;20052;-75
2022/07/18 22:09:33;;;;;;;10.73;4.13;;;;;;;;;;10360476;28;20080;-75
2022/07/18 22:14:35;;;;;;;3.75;2.80;;;;;;;;;;10360395;28;20036;-75
2022/07/18 22:19:35;;;;;;;3.40;2.60;;;;;;;;;;10360289;28;20033;-75
2022/07/18 22:24:36;;;;;;;3.83;2.83;;;;;;;;;;10360178;28;20042;-75
2022/07/18 22:29:36;;;;;;;6.25;2.50;;;;;;;;;;10359989;28;20076;-76
2022/07/18 22:34:36;;;;;;;4.22;2.70;;;;;;;;;;10359778;28;20026;-75
2022/07/18 22:39:36;;;;;;;5.97;2.60;;;;;;;;;;10360013;28;20058;-75
2022/07/18 22:44:36;;;;;;;5.10;2.35;;;;;;;;;;10359299;28;20105;-75
2022/07/18 22:49:37;;;;;;;3.10;2.30;;;;;;;;;;10359111;28;20025;-75
2022/07/18 22:54:38;;;;;;;4.70;2.80;;;;;;;;;;10358943;28;20034;-75
2022/07/18 22:59:38;;;;;;;6.70;2.78;;;;;;;;;;10357769;28;20046;-75
2022/07/18 23:04:38;;;;;;;6.10;2.67;;;;;;;;;;10358744;28;20026;-75
2022/07/18 23:09:39;;;;;;;8.98;2.92;;;;;;;;;;10358279;28;20258;-75
2022/07/18 23:14:39;;;;;;;7.47;3.33;;;;;;;;;;10358017;28;20118;-76
2022/07/18 23:19:39;;;;;;;4.93;2.50;;;;;;;;;;10357960;28;20029;-75
2022/07/18 23:24:39;;;;;;;4.00;3.30;;;;;;;;;;10357954;28;20129;-75
2022/07/18 23:29:40;;;;;;;6.18;2.67;;;;;;;;;;10357555;28;20033;-75
2022/07/18 23:34:41;;;;;;;4.55;2.90;;;;;;;;;;10357381;28;20160;-75
2022/07/18 23:39:41;;;;;;;5.97;3.20;;;;;;;;;;10357150;28;20583;-75
2022/07/18 23:44:41;;;;;;;7.85;2.97;;;;;;;;;;10374507;28;20451;-75
2022/07/18 23:49:42;;;;;;;4.40;3.55;;;;;;;;;;10356890;28;20033;-75
2022/07/18 23:54:42;;;;;;;4.68;3.05;;;;;;;;;;10357234;28;20416;-75
2022/07/18 23:59:43;;;;;;;4.20;2.72;;;;;;;;;;10356231;28;20585;-76
